Sally Bromfield — WDG4107 — position and weather

sailwx.info

Track history (hours):
 
Tides and Currents Weather Stations Pressure Air Temp Water Temp Dewpoint Dewpoint Depression Visibility Wind Speed Wind Dir Waves Ship Positions

Sally Bromfield

Owner: Ingram Barge Company LLC, Nashville, TN. More information available from US FCC via Universal Licensing System and Coast Guard Vessel Documentation Center.

Last reported at 2017-Sep-18 09:28 UTC. Time now 2017-Sep-24 17:49 UTC.
Position N 32°40' W 091°06'.

Length 55 m; draft 3 m.

Type: Towing. MMSI: 367533050.

Date/timePositionNaut miles runAvg speedWind from/ knotsBaromVisibWave heightAir tempDewpointWater temp
2017-Sep-18 09:28N 32°40' W 091°06'2 3.8
2017-Sep-18 09:00N 32°40' W 091°08'2 3.3
2017-Sep-18 08:29N 32°38' W 091°09'2 4.3
2017-Sep-18 08:00N 32°36' W 091°08'3 4.6
2017-Sep-18 07:22N 32°34' W 091°06'1 4.0
2017-Sep-18 07:00N 32°33' W 091°06'2 4.7
2017-Sep-18 06:30N 32°30' W 091°07'2 4.1
2017-Sep-18 06:00N 32°28' W 091°06'3 4.9
2017-Sep-18 05:30N 32°27' W 091°04'2 4.7
2017-Sep-18 05:00N 32°26' W 091°02'2 4.2
2017-Sep-18 04:30N 32°25' W 090°60'2 4.0
2017-Sep-18 04:00N 32°23' W 091°00'2 3.9
2017-Sep-18 03:30N 32°21' W 090°59'1 2.1
2017-Sep-18 03:00N 32°21' W 090°58'1 2.5
2017-Sep-18 02:30N 32°21' W 090°56'2 4.3
2017-Sep-18 02:00N 32°20' W 090°54'2 4.4
2017-Sep-18 01:30N 32°18' W 090°55'0 0.0
2017-Sep-18 01:00N 32°18' W 090°55'0 0.0
2017-Sep-18 00:30N 32°18' W 090°55'0 1.0
2017-Sep-18 00:00N 32°18' W 090°56'2 4.6
2017-Sep-17 23:30N 32°16' W 090°58'2 3.7
2017-Sep-17 23:00N 32°14' W 090°59'2 5.0
2017-Sep-17 22:30N 32°12' W 090°59'2 4.4
2017-Sep-17 22:00N 32°10' W 091°00'2 4.6
2017-Sep-17 21:30N 32°08' W 091°01'2 3.9
2017-Sep-17 20:59N 32°07' W 091°03'2 4.9
2017-Sep-17 20:30N 32°08' W 091°06'2 3.6
2017-Sep-17 20:00N 32°06' W 091°06'3 4.8
2017-Sep-17 19:24N 32°04' W 091°04'2 4.0
2017-Sep-17 19:00N 32°03' W 091°04'8 4.4
2017-Sep-17 17:10N 31°58' W 091°11'1 4.7
2017-Sep-17 16:59N 31°57' W 091°11'10 4.0
2017-Sep-17 14:28N 31°51' W 091°21'5 4.6
2017-Sep-17 13:19N 31°46' W 091°22'  
2017-Sep-13 18:07N 31°59' W 091°08'2 7.6
2017-Sep-13 17:54N 31°59' W 091°06'3 7.2
2017-Sep-13 17:30N 32°02' W 091°04'5 6.7
2017-Sep-13 16:45N 32°06' W 091°06'2 5.4
2017-Sep-13 16:27N 32°08' W 091°06'3 7.5
2017-Sep-13 16:00N 32°07' W 091°02'4 7.3
2017-Sep-13 15:30N 32°11' W 091°00'4 7.9
2017-Sep-13 15:00N 32°14' W 090°59'4 7.9
2017-Sep-13 14:30N 32°17' W 090°56'3 6.6
2017-Sep-13 14:00N 32°20' W 090°54'3 5.9
2017-Sep-13 13:30N 32°21' W 090°58'0 0.1
2017-Sep-13 13:00N 32°21' W 090°58'0 0.0
2017-Sep-13 12:30N 32°21' W 090°58'0 0.1
2017-Sep-13 12:00N 32°21' W 090°57'0 0.0
2017-Sep-13 11:30N 32°21' W 090°58'0 0.0
2017-Sep-13 11:00N 32°21' W 090°58'0 0.0
2017-Sep-13 10:30N 32°21' W 090°58'0 0.0
2017-Sep-13 10:00N 32°21' W 090°58'0 0.0
2017-Sep-13 09:30N 32°21' W 090°58'0 0.0
2017-Sep-13 09:00N 32°21' W 090°58'0 0.1
2017-Sep-13 08:30N 32°21' W 090°58'1 2.9
2017-Sep-13 08:00N 32°21' W 090°59'3 5.7
2017-Sep-13 07:30N 32°24' W 090°59'3 6.3
2017-Sep-13 07:00N 32°26' W 091°02'3 6.7
2017-Sep-13 06:30N 32°27' W 091°06'3 6.2
2017-Sep-13 06:00N 32°30' W 091°07'4 6.8
2017-Sep-13 05:28N 32°34' W 091°06'3 6.8
2017-Sep-13 05:00N 32°36' W 091°09'3 6.8
2017-Sep-13 04:30N 32°40' W 091°08'6 5.8
2017-Sep-13 03:33N 32°44' W 091°03'0 6.6
2017-Sep-13 03:30N 32°44' W 091°04'4 6.1
2017-Sep-13 02:52N 32°44' W 091°08'  
Track history (hours):
 
Tides and Currents Weather Stations Pressure Air Temp Water Temp Dewpoint Dewpoint Depression Visibility Wind Speed Wind Dir Waves Ship Positions

Sally Bromfield

Owner: Ingram Barge Company LLC, Nashville, TN. More information available from US FCC via Universal Licensing System and Coast Guard Vessel Documentation Center.

Last reported at 2017-Sep-18 09:28 UTC. Time now 2017-Sep-24 17:49 UTC.
Position N 32°40' W 091°06'.

Length 55 m; draft 3 m.

Type: Towing. MMSI: 367533050.

Date/timePositionNaut miles runAvg speedWind from/ knotsBaromVisibWave heightAir tempDewpointWater temp
2017-Sep-18 09:28N 32°40' W 091°06'2 3.8
2017-Sep-18 09:00N 32°40' W 091°08'2 3.3
2017-Sep-18 08:29N 32°38' W 091°09'2 4.3
2017-Sep-18 08:00N 32°36' W 091°08'3 4.6
2017-Sep-18 07:22N 32°34' W 091°06'1 4.0
2017-Sep-18 07:00N 32°33' W 091°06'2 4.7
2017-Sep-18 06:30N 32°30' W 091°07'2 4.1
2017-Sep-18 06:00N 32°28' W 091°06'3 4.9
2017-Sep-18 05:30N 32°27' W 091°04'2 4.7
2017-Sep-18 05:00N 32°26' W 091°02'2 4.2
2017-Sep-18 04:30N 32°25' W 090°60'2 4.0
2017-Sep-18 04:00N 32°23' W 091°00'2 3.9
2017-Sep-18 03:30N 32°21' W 090°59'1 2.1
2017-Sep-18 03:00N 32°21' W 090°58'1 2.5
2017-Sep-18 02:30N 32°21' W 090°56'2 4.3
2017-Sep-18 02:00N 32°20' W 090°54'2 4.4
2017-Sep-18 01:30N 32°18' W 090°55'0 0.0
2017-Sep-18 01:00N 32°18' W 090°55'0 0.0
2017-Sep-18 00:30N 32°18' W 090°55'0 1.0
2017-Sep-18 00:00N 32°18' W 090°56'2 4.6
2017-Sep-17 23:30N 32°16' W 090°58'2 3.7
2017-Sep-17 23:00N 32°14' W 090°59'2 5.0
2017-Sep-17 22:30N 32°12' W 090°59'2 4.4
2017-Sep-17 22:00N 32°10' W 091°00'2 4.6
2017-Sep-17 21:30N 32°08' W 091°01'2 3.9
2017-Sep-17 20:59N 32°07' W 091°03'2 4.9
2017-Sep-17 20:30N 32°08' W 091°06'2 3.6
2017-Sep-17 20:00N 32°06' W 091°06'3 4.8
2017-Sep-17 19:24N 32°04' W 091°04'2 4.0
2017-Sep-17 19:00N 32°03' W 091°04'8 4.4
2017-Sep-17 17:10N 31°58' W 091°11'1 4.7
2017-Sep-17 16:59N 31°57' W 091°11'10 4.0
2017-Sep-17 14:28N 31°51' W 091°21'5 4.6
2017-Sep-17 13:19N 31°46' W 091°22'  
2017-Sep-13 18:07N 31°59' W 091°08'2 7.6
2017-Sep-13 17:54N 31°59' W 091°06'3 7.2
2017-Sep-13 17:30N 32°02' W 091°04'5 6.7
2017-Sep-13 16:45N 32°06' W 091°06'2 5.4
2017-Sep-13 16:27N 32°08' W 091°06'3 7.5
2017-Sep-13 16:00N 32°07' W 091°02'4 7.3
2017-Sep-13 15:30N 32°11' W 091°00'4 7.9
2017-Sep-13 15:00N 32°14' W 090°59'4 7.9
2017-Sep-13 14:30N 32°17' W 090°56'3 6.6
2017-Sep-13 14:00N 32°20' W 090°54'3 5.9
2017-Sep-13 13:30N 32°21' W 090°58'0 0.1
2017-Sep-13 13:00N 32°21' W 090°58'0 0.0
2017-Sep-13 12:30N 32°21' W 090°58'0 0.1
2017-Sep-13 12:00N 32°21' W 090°57'0 0.0
2017-Sep-13 11:30N 32°21' W 090°58'0 0.0
2017-Sep-13 11:00N 32°21' W 090°58'0 0.0
2017-Sep-13 10:30N 32°21' W 090°58'0 0.0
2017-Sep-13 10:00N 32°21' W 090°58'0 0.0
2017-Sep-13 09:30N 32°21' W 090°58'0 0.0
2017-Sep-13 09:00N 32°21' W 090°58'0 0.1
2017-Sep-13 08:30N 32°21' W 090°58'1 2.9
2017-Sep-13 08:00N 32°21' W 090°59'3 5.7
2017-Sep-13 07:30N 32°24' W 090°59'3 6.3
2017-Sep-13 07:00N 32°26' W 091°02'3 6.7
2017-Sep-13 06:30N 32°27' W 091°06'3 6.2
2017-Sep-13 06:00N 32°30' W 091°07'4 6.8
2017-Sep-13 05:28N 32°34' W 091°06'3 6.8
2017-Sep-13 05:00N 32°36' W 091°09'3 6.8
2017-Sep-13 04:30N 32°40' W 091°08'6 5.8
2017-Sep-13 03:33N 32°44' W 091°03'0 6.6
2017-Sep-13 03:30N 32°44' W 091°04'4 6.1
2017-Sep-13 02:52N 32°44' W 091°08'  

Dump ship's entire track history